Fargo, North Dakota
Current Conditions -  °F | °C
As of 10:53 AM on Friday 28 Nov 2014 (Local Time) from KFAR Reporting Station
Overcast Overcast  
Wind Chill: -14°   Ceiling: 4500
Heat Index: -9°   Visibility: 10mi
Dew Point: -13°   Wind: 7mph
Humidity: 71%   Direction: 130°SE
Pressure: 29.91"   Gusts: NA
Location:  46.88°N, 96.78°W
Report Text: KFAR 281653Z 13006KT 10SM FEW016 OVC045 M09/M13 A2991 RMK AO2 SLP149 T10891133
Loading
Personal Weather Stations






























Interactive Weather Map New forecast layout! Learn more

10-Day Weather Forecast

Advertisements
Track Severe Weather on mobile